Date,TemperatureHighF,TemperatureAvgF,TemperatureLowF,DewpointHighF,DewpointAvgF,DewpointLowF,HumidityHigh,HumidityAvg,HumidityLow,PressureMaxIn,PressureMinIn,WindSpeedMaxMPH,WindSpeedAvgMPH,GustSpeedMaxMPH,PrecipitationSumIn
2013-8-1,81.2,76.1,71.9,74.2,71.0,68.9,94,85,72,30.07,29.97,16,2,18,0.06
2013-8-2,81.7,75.4,69.9,75.3,71.4,68.7,97,88,71,30.02,29.93,14,1,14,0.40
2013-8-3,81.9,75.7,71.3,74.1,71.2,69.6,96,86,72,30.00,29.93,13,1,14,0.08
2013-8-4,82.3,75.8,70.6,74.1,71.0,68.4,96,85,72,30.00,29.92,13,2,15,0.04
2013-8-5,82.1,75.6,70.8,75.2,71.6,69.3,96,88,76,29.98,29.90,5,1,16,0.39
2013-8-6,81.7,76.0,70.9,73.0,70.7,69.4,97,84,67,29.99,29.92,4,1,14,0.25
2013-8-7,82.3,75.3,69.0,72.8,70.3,67.8,97,85,71,30.01,29.93,4,1,16,0.48
2013-8-8,82.1,75.2,69.2,73.7,70.7,68.0,96,87,69,30.03,29.95,5,1,14,0.94
2013-8-9,81.7,75.1,69.5,74.2,71.5,68.9,98,89,73,30.03,29.92,4,1,11,0.74
2013-8-10,81.9,75.4,71.4,75.7,72.1,67.7,96,89,74,29.99,29.93,14,1,19,0.36
2013-8-11,80.0,75.7,73.2,75.7,73.4,71.3,97,93,83,30.01,29.94,13,2,13,0.49
2013-8-12,82.0,76.6,72.2,74.1,71.3,69.2,94,84,67,30.04,29.97,15,2,15,0.03
2013-8-13,82.3,76.2,71.9,73.4,70.8,68.8,92,84,70,30.03,29.93,12,2,15,0.02
2013-8-14,81.3,75.6,70.6,74.7,71.2,68.1,95,86,72,29.98,29.90,16,2,16,0.14
2013-8-15,80.2,74.3,71.7,73.1,70.3,68.9,93,88,74,29.99,29.93,13,1,13,0.00
2013-8-16,82.0,78.9,71.4,74.1,71.8,68.7,94,79,72,30.01,29.94,13,3,16,0.08
2013-8-17,81.9,75.9,70.2,73.2,69.6,66.1,90,81,73,30.01,29.92,4,2,14,0.00
2013-8-18,82.5,76.5,71.6,74.3,70.9,68.8,96,83,69,30.00,29.91,15,2,15,0.25
2013-8-19,83.6,75.1,68.4,74.6,70.4,66.2,98,86,66,29.99,29.90,13,1,13,0.12
2013-8-20,81.8,74.0,66.7,74.8,70.1,64.9,97,88,75,29.96,29.84,12,1,13,0.07
2013-8-21,83.5,73.7,66.9,77.0,71.3,66.2,99,92,78,29.92,29.83,7,0,7,0.22
2013-8-22,81.5,71.4,67.6,74.8,69.4,66.7,98,94,78,29.91,29.87,12,1,12,0.01